Chicago, IL (60689)

3:40 AM CDT on August 21, 2014 (GMT -0500)
West Loop - Old St. Pats | Change Station
CLOSE
Current Station
Personal Weather Station
Location: Chicago, IL
Elevation: 548 ft
Nearby Weather Stations
Active Advisory: Special Statement

Elev 548 ft 41.88 °N, 87.64 °W | Updated 52 seconds ago

Overcast
Overcast
73.8 °F
Feels Like 73 °F
N
1.0
Wind Variable Wind from WSW
Gusts 4.0 mph

Today
High -- | Low -- °F
--% Chance of Precip.
Yesterday
High -- | Low -- °F
Precip. -- in
6:04 AM 7:41 PM
Waning Crescent, 15% visible
Pressure 29.93 in
Visibility 5.0 miles
Clouds Few 2800 ft
Mostly Cloudy 8500 ft
Overcast 11000 ft
Heat Index 73 °F
Dew Point 69 °F
Humidity 84%
Rainfall 0.00 in
Snow Depth Not available.
UV 0 out of 12
Pollen 9.90 out of 12
Ozone Good
PM2.5 Moderate
Flu Activity Not available.
METAR KMDW 210751Z 23006KT 5SM -RA BR FEW028 BKN085 OVC110 23/21 A2996 RMK AO2 RAE27B46 SLP133 P0004 T02280206

More Conditions Fewer Conditions

Pressure 29.93 in
Visibility 5.0 miles
Clouds Few 2800 ft
Mostly Cloudy 8500 ft
Overcast 11000 ft
Heat Index 73 °F
Dew Point 69 °F
Humidity 84%
Rainfall 0.00 in
Snow Depth Not available.
UV 0 out of 12
Pollen 9.90 out of 12
Ozone Good
PM2.5 Moderate
Flu Activity Not available.
METAR KMDW 210751Z 23006KT 5SM -RA BR FEW028 BKN085 OVC110 23/21 A2996 RMK AO2 RAE27B46 SLP133 P0004 T02280206

More Conditions Fewer Conditions

10-Day Weather Forecast

Almanac

Astronomy

Aug. 21, 2014 Rise Set
Actual Time 6:04 AM CDT 7:41 PM CDT
Civil Twilight 5:35 AM CDT 8:11 PM CDT
Nautical Twilight 4:59 AM CDT 8:46 PM CDT
Astronomical Twilight 4:21 AM CDT 9:24 PM CDT
Moon 2:33 AM CDT 5:11 PM CDT
Length of Visible Light 14h 35m
Length of Day
13h 36m
Tomorrow will be 2m 34s shorter.
Waning Crescent, 15% of the Moon is Illuminated
Today
Waning Crescent
Aug 25
New
Sep 2
First Quarter
Sep 8
Full
Sep 15
Last Quarter

Today's Extremes

State Highs State Lows

Community

WunderPhotos

Upload Photos

1,745,866 photos uploaded!

Nearby

Air Quality

  Air Quality AQ Index Pollutant
Yesterday Moderate
PM2.5
Yesterday Good
OZONE
Current Moderate
PM2.5
Current Good
OZONE
Thursday Moderate
OZONE
Thursday Moderate
PM2.5

Snow Depth

Station Depth Elevation
No new snow has been reported.

Earthquake Activity

City Distance Mag. Time & Date
No recent earthquake activity has been reported nearby.
Minimum magnitude displayed is 2.5.

Coastal Water Temperatures

Place Temperature
No Stations Reporting

Nearby Weather Stations